createdAt,value
2022-09-28T00:02:13.601Z,84.34
2022-09-28T00:04:43.428Z,83.93
2022-09-28T00:07:13.180Z,84.03
2022-09-28T00:09:43.084Z,84.04
2022-09-28T00:12:12.843Z,83.72
2022-09-28T00:14:44.213Z,84.26
2022-09-28T00:17:15.693Z,84.25
2022-09-28T00:19:45.912Z,83.88
2022-09-28T00:22:15.649Z,84.49
2022-09-28T00:24:45.454Z,84.62
2022-09-28T00:27:15.198Z,84.41
2022-09-28T00:29:44.974Z,84.91
2022-09-28T00:32:15.525Z,84.40
2022-09-28T00:34:48.892Z,84.24
2022-09-28T00:37:20.234Z,83.61
2022-09-28T00:39:50.510Z,84.50
2022-09-28T00:42:25.763Z,84.50
2022-09-28T00:44:59.300Z,83.73
2022-09-28T00:47:40.894Z,83.72
2022-09-28T00:50:14.668Z,82.97
2022-09-28T00:52:50.120Z,83.20
2022-09-28T00:55:22.800Z,83.33
2022-09-28T00:57:55.855Z,83.33
2022-09-28T01:00:26.666Z,83.36
2022-09-28T01:02:56.410Z,83.11
2022-09-28T01:05:27.600Z,83.33
2022-09-28T01:07:58.317Z,83.34
2022-09-28T01:10:31.065Z,82.61
2022-09-28T01:13:00.874Z,83.41
2022-09-28T01:15:32.791Z,83.65
2022-09-28T01:18:15.110Z,83.02
2022-09-28T01:20:54.252Z,83.17
2022-09-28T01:23:48.970Z,83.28
2022-09-28T01:26:27.691Z,83.11
2022-09-28T01:29:00.493Z,82.64
2022-09-28T01:31:33.304Z,83.08
2022-09-28T01:34:06.711Z,82.93
2022-09-28T01:36:39.949Z,82.56
2022-09-28T01:39:15.823Z,83.31
2022-09-28T01:41:48.570Z,82.95
2022-09-28T01:44:21.437Z,82.48
2022-09-28T01:46:53.605Z,82.61
2022-09-28T01:49:32.313Z,82.92
2022-09-28T01:52:13.898Z,83.08
2022-09-28T01:54:55.371Z,82.53
2022-09-28T01:57:33.773Z,82.48
2022-09-28T02:00:08.171Z,82.54
2022-09-28T02:02:48.942Z,83.06
2022-09-28T02:05:23.413Z,83.25
2022-09-28T02:08:08.050Z,83.12
2022-09-28T02:10:46.289Z,83.12
2022-09-28T02:13:24.837Z,83.32
2022-09-28T02:18:47.005Z,83.07
2022-09-28T02:21:20.567Z,83.28
2022-09-28T02:24:05.856Z,83.63
2022-09-28T02:26:41.339Z,83.30
2022-09-28T02:29:11.295Z,83.44
2022-09-28T02:31:41.263Z,83.80
2022-09-28T02:34:12.009Z,83.16
2022-09-28T02:36:41.808Z,83.45
2022-09-28T02:39:17.773Z,83.87
2022-09-28T02:42:08.440Z,84.57
2022-09-28T02:44:52.895Z,83.83
2022-09-28T02:47:31.733Z,83.77
2022-09-28T02:50:21.425Z,82.96
2022-09-28T02:53:09.052Z,83.30
2022-09-28T02:56:04.139Z,83.63
2022-09-28T02:58:56.190Z,83.77
2022-09-28T03:01:53.727Z,83.43
2022-09-28T03:04:38.356Z,83.42
2022-09-28T03:07:12.677Z,82.69
2022-09-28T03:09:45.725Z,83.41
2022-09-28T03:12:18.471Z,82.51
2022-09-28T03:14:48.883Z,83.42
2022-09-28T03:17:21.292Z,83.23
2022-09-28T03:19:51.052Z,82.67
2022-09-28T03:22:20.521Z,82.79
2022-09-28T03:24:50.298Z,82.99
2022-09-28T03:27:20.165Z,82.53
2022-09-28T03:29:49.986Z,82.63
2022-09-28T03:32:19.545Z,83.08
2022-09-28T03:34:49.656Z,82.93
2022-09-28T03:37:19.953Z,82.93
2022-09-28T03:39:49.684Z,83.17
2022-09-28T03:42:19.323Z,82.89
2022-09-28T03:44:50.795Z,83.38
2022-09-28T03:47:21.306Z,83.43
2022-09-28T03:49:51.024Z,82.58
2022-09-28T03:52:20.463Z,82.03
2022-09-28T03:54:50.283Z,82.92
2022-09-28T03:57:20.322Z,82.47
2022-09-28T03:59:50.065Z,82.25
2022-09-28T04:02:19.935Z,82.53
2022-09-28T04:04:49.694Z,82.83
2022-09-28T04:07:19.710Z,82.47
2022-09-28T04:09:49.477Z,82.61
2022-09-28T04:12:19.772Z,82.94
2022-09-28T04:14:50.889Z,82.94
2022-09-28T04:17:20.722Z,83.10
2022-09-28T04:19:50.700Z,82.82
2022-09-28T04:22:30.937Z,82.82
2022-09-28T04:25:00.725Z,82.50
2022-09-28T04:27:48.316Z,82.71
2022-09-28T04:30:18.603Z,83.14
2022-09-28T04:32:48.717Z,82.48
2022-09-28T04:35:19.182Z,83.21
2022-09-28T04:37:48.997Z,83.04
2022-09-28T04:40:18.811Z,83.56
2022-09-28T04:42:55.775Z,83.49
2022-09-28T04:45:27.365Z,83.53
2022-09-28T04:47:58.746Z,83.19
2022-09-28T04:50:49.429Z,82.81
2022-09-28T04:53:20.931Z,82.74
2022-09-28T04:56:02.087Z,82.59
2022-09-28T04:58:32.630Z,82.68
2022-09-28T05:01:06.813Z,82.29
2022-09-28T05:03:54.226Z,82.51
2022-09-28T05:06:27.112Z,82.47
2022-09-28T05:08:59.223Z,82.79
2022-09-28T05:11:28.950Z,82.88
2022-09-28T05:13:59.597Z,83.29
2022-09-28T05:16:30.908Z,82.71
2022-09-28T05:19:18.812Z,83.37
2022-09-28T05:21:49.103Z,83.32
2022-09-28T05:24:18.828Z,84.48
2022-09-28T05:26:50.660Z,84.43
2022-09-28T05:29:21.161Z,83.72
2022-09-28T05:32:08.725Z,83.30
2022-09-28T05:34:40.169Z,83.88
2022-09-28T05:37:11.344Z,83.48
2022-09-28T05:39:41.071Z,83.76
2022-09-28T05:42:11.656Z,83.82
2022-09-28T05:44:41.461Z,83.45
2022-09-28T05:47:11.543Z,84.15
2022-09-28T05:49:42.381Z,83.38
2022-09-28T05:52:13.187Z,83.80
2022-09-28T05:54:43.041Z,83.94
2022-09-28T05:57:13.477Z,83.28
2022-09-28T05:59:43.490Z,83.13
2022-09-28T06:02:13.377Z,83.26
2022-09-28T06:04:44.454Z,83.86
2022-09-28T06:07:14.468Z,83.77
2022-09-28T06:09:44.501Z,84.01
2022-09-28T06:12:21.412Z,84.24
2022-09-28T06:14:52.849Z,83.65
2022-09-28T06:17:23.995Z,83.73
2022-09-28T06:19:55.785Z,83.70
2022-09-28T06:22:29.682Z,83.77
2022-09-28T06:25:04.371Z,85.01
2022-09-28T06:27:34.829Z,84.09
2022-09-28T06:30:06.615Z,83.10
2022-09-28T06:32:36.363Z,83.19
2022-09-28T06:35:09.872Z,83.49
2022-09-28T06:37:39.750Z,82.61
2022-09-28T06:40:11.308Z,82.55
2022-09-28T06:42:41.193Z,82.55
2022-09-28T06:45:23.240Z,81.70
2022-09-28T06:47:57.460Z,83.56
2022-09-28T06:50:34.218Z,82.20
2022-09-28T06:53:21.993Z,81.88
2022-09-28T06:55:53.444Z,81.99
2022-09-28T06:58:24.011Z,81.99
2022-09-28T07:00:54.098Z,81.15
2022-09-28T07:03:24.237Z,80.55
2022-09-28T07:06:01.979Z,80.13
2022-09-28T07:08:56.813Z,80.93
2022-09-28T07:11:24.342Z,80.04
2022-09-28T07:14:22.311Z,80.26
2022-09-28T07:17:09.374Z,80.11
2022-09-28T07:19:16.469Z,79.83
2022-09-28T07:21:55.161Z,80.12
2022-09-28T07:24:17.960Z,81.23
2022-09-28T07:27:05.739Z,79.96
2022-09-28T07:29:37.177Z,79.39
2022-09-28T07:32:22.031Z,79.39
2022-09-28T07:35:04.229Z,80.54
2022-09-28T07:37:37.757Z,79.48
2022-09-28T07:40:27.696Z,79.22
2022-09-28T07:42:59.261Z,79.49
2022-09-28T07:45:30.082Z,79.49
2022-09-28T07:47:59.942Z,79.11
2022-09-28T07:50:34.205Z,77.89
2022-09-28T07:53:20.342Z,79.14
2022-09-28T07:56:04.493Z,80.09
2022-09-28T07:58:40.003Z,80.25
2022-09-28T08:01:23.367Z,80.65
2022-09-28T08:03:55.159Z,79.38
2022-09-28T08:06:25.136Z,79.34
2022-09-28T08:08:56.231Z,78.27
2022-09-28T08:11:27.654Z,77.90
2022-09-28T08:14:14.965Z,78.26
2022-09-28T08:16:51.998Z,76.91
2022-09-28T08:19:22.052Z,76.91
2022-09-28T08:21:52.248Z,77.23
2022-09-28T08:24:23.838Z,76.41
2022-09-28T08:26:55.497Z,77.08
2022-09-28T08:29:26.933Z,74.83
2022-09-28T08:32:01.974Z,73.99
2022-09-28T08:34:40.167Z,74.30
2022-09-28T08:37:20.582Z,75.09
2022-09-28T08:40:19.721Z,74.12
2022-09-28T08:43:03.059Z,73.96
2022-09-28T08:45:46.350Z,73.92
2022-09-28T08:48:41.410Z,73.30
2022-09-28T08:51:33.451Z,74.69
2022-09-28T08:54:14.801Z,74.69
2022-09-28T08:56:55.525Z,74.29
2022-09-28T08:59:28.689Z,74.64
2022-09-28T09:02:05.303Z,74.06
2022-09-28T09:04:35.822Z,73.53
2022-09-28T09:07:44.400Z,71.81
2022-09-28T09:10:30.151Z,69.88
2022-09-28T09:13:37.697Z,69.88
2022-09-28T09:16:24.145Z,72.31
2022-09-28T09:19:18.940Z,70.50
2022-09-28T09:22:18.705Z,68.75
2022-09-28T09:27:38.990Z,67.37
2022-09-28T09:30:20.175Z,67.16
2022-09-28T09:33:07.644Z,64.43
2022-09-28T09:35:47.640Z,63.74
2022-09-28T09:38:48.902Z,63.74
2022-09-28T09:41:48.331Z,66.02
2022-09-28T09:44:56.935Z,64.31
2022-09-28T09:47:46.448Z,64.23
2022-09-28T09:50:35.114Z,65.59
2022-09-28T09:53:14.314Z,63.13
2022-09-28T09:55:46.899Z,63.31
2022-09-28T09:58:33.094Z,61.90
2022-09-28T10:01:10.325Z,63.32
2022-09-28T10:03:44.807Z,61.86
2022-09-28T10:06:19.256Z,59.60
2022-09-28T10:08:52.040Z,59.86
2022-09-28T10:11:28.081Z,59.34
2022-09-28T10:13:58.342Z,60.21
2022-09-28T10:16:42.947Z,60.05
2022-09-28T10:19:14.803Z,58.72
2022-09-28T10:22:05.050Z,58.62
2022-09-28T10:24:45.239Z,57.15
2022-09-28T10:27:18.567Z,55.04
2022-09-28T10:29:54.720Z,54.83
2022-09-28T10:32:30.433Z,55.26
2022-09-28T10:35:22.504Z,53.46
2022-09-28T10:38:05.077Z,53.50
2022-09-28T10:40:43.388Z,53.96
2022-09-28T10:43:36.514Z,55.63
2022-09-28T10:46:12.917Z,55.25
2022-09-28T10:48:58.436Z,54.11
2022-09-28T10:51:47.240Z,54.62
2022-09-28T10:54:21.561Z,54.62
2022-09-28T10:56:54.982Z,51.81
2022-09-28T10:59:32.018Z,51.95
2022-09-28T11:02:12.351Z,50.66
2022-09-28T11:04:44.479Z,49.18
2022-09-28T11:07:20.288Z,50.85
2022-09-28T11:09:51.520Z,52.23
2022-09-28T11:12:23.817Z,52.58
2022-09-28T11:15:00.050Z,54.34
2022-09-28T11:17:36.566Z,53.73
2022-09-28T11:20:29.163Z,54.66
2022-09-28T11:23:03.452Z,54.67
2022-09-28T11:25:34.444Z,52.77
2022-09-28T11:28:06.565Z,52.87
2022-09-28T11:30:51.185Z,52.04
2022-09-28T11:33:46.181Z,49.69
2022-09-28T11:36:41.542Z,49.47
2022-09-28T11:39:17.943Z,51.30
2022-09-28T11:42:01.361Z,52.54
2022-09-28T11:44:43.239Z,53.87
2022-09-28T11:47:31.877Z,54.91
2022-09-28T11:50:10.851Z,54.36
2022-09-28T11:52:46.452Z,53.02
2022-09-28T11:55:17.134Z,50.42
2022-09-28T11:57:53.139Z,47.83
2022-09-28T12:00:23.627Z,45.43
2022-09-28T12:03:01.041Z,47.75
2022-09-28T12:05:36.794Z,49.73
2022-09-28T12:08:09.664Z,49.85
2022-09-28T12:11:13.686Z,50.48
2022-09-28T12:13:51.414Z,50.20
2022-09-28T12:17:03.739Z,48.41
2022-09-28T12:19:21.861Z,48.25
2022-09-28T12:21:54.636Z,48.81
2022-09-28T12:24:36.307Z,48.81
2022-09-28T12:27:17.607Z,48.75
2022-09-28T12:29:53.102Z,49.41
2022-09-28T12:32:40.648Z,49.41
2022-09-28T12:35:16.781Z,49.91
2022-09-28T12:37:53.931Z,47.71
2022-09-28T12:40:23.670Z,47.71
2022-09-28T12:43:00.041Z,46.78
2022-09-28T12:46:06.817Z,49.27
2022-09-28T12:48:39.506Z,50.89
2022-09-28T12:51:30.252Z,48.55
2022-09-28T12:54:11.697Z,47.13
2022-09-28T12:56:44.748Z,47.54
2022-09-28T12:59:20.816Z,46.17
2022-09-28T13:01:56.193Z,47.12
2022-09-28T13:04:47.279Z,47.12
2022-09-28T13:07:25.904Z,49.01
2022-09-28T13:09:58.657Z,51.24
2022-09-28T13:12:37.311Z,52.66
2022-09-28T13:15:17.152Z,52.95
2022-09-28T13:17:59.091Z,52.93
2022-09-28T13:20:35.770Z,54.83
2022-09-28T13:23:20.125Z,55.13
2022-09-28T13:26:04.949Z,56.10
2022-09-28T13:28:37.288Z,54.87
2022-09-28T13:31:08.815Z,54.47
2022-09-28T13:33:41.558Z,53.93
2022-09-28T13:36:32.598Z,54.90
2022-09-28T13:39:02.535Z,54.10
2022-09-28T13:41:37.635Z,54.10
2022-09-28T13:44:21.200Z,53.36
2022-09-28T13:47:20.608Z,52.92
2022-09-28T13:49:57.875Z,52.00
2022-09-28T13:52:42.567Z,50.98
2022-09-28T13:55:36.061Z,50.98
2022-09-28T13:58:25.851Z,51.73
2022-09-28T14:01:10.583Z,53.23
2022-09-28T14:03:46.056Z,54.62
2022-09-28T14:06:30.401Z,55.04
2022-09-28T14:09:18.056Z,56.22
2022-09-28T14:12:01.905Z,56.12
2022-09-28T14:14:35.101Z,56.90
2022-09-28T14:17:26.000Z,57.05
2022-09-28T14:20:07.520Z,58.41
2022-09-28T14:22:40.544Z,67.44
2022-09-28T14:25:27.643Z,67.44
2022-09-28T14:28:04.832Z,71.91
2022-09-28T14:30:46.557Z,76.11
2022-09-28T14:33:25.477Z,76.11
2022-09-28T14:36:06.592Z,76.31
2022-09-28T14:38:59.472Z,75.52
2022-09-28T14:41:35.247Z,76.05
2022-09-28T14:46:57.998Z,75.88
2022-09-28T14:49:36.879Z,75.49
2022-09-28T14:52:11.282Z,76.65
2022-09-28T14:54:45.207Z,76.05
2022-09-28T14:57:23.514Z,76.81
2022-09-28T14:59:53.879Z,77.73
2022-09-28T15:02:29.558Z,77.77
2022-09-28T15:05:02.579Z,77.70
2022-09-28T15:07:46.180Z,77.71
2022-09-28T15:10:29.542Z,77.46
2022-09-28T15:13:02.191Z,76.37
2022-09-28T15:15:38.443Z,76.40
2022-09-28T15:18:21.183Z,76.78
2022-09-28T15:20:51.856Z,76.42
2022-09-28T15:23:36.803Z,77.13
2022-09-28T15:26:10.208Z,76.89
2022-09-28T15:28:42.995Z,76.81
2022-09-28T15:31:18.370Z,76.97
2022-09-28T15:34:06.210Z,76.47
2022-09-28T15:36:46.799Z,75.49
2022-09-28T15:39:28.617Z,75.25
2022-09-28T15:41:59.357Z,76.02
2022-09-28T15:44:35.155Z,75.53
2022-09-28T15:47:09.794Z,75.78
2022-09-28T15:50:00.354Z,75.55
2022-09-28T15:52:42.157Z,74.95
2022-09-28T15:55:23.850Z,74.95
2022-09-28T15:58:08.738Z,74.64
2022-09-28T16:00:38.250Z,74.72
2022-09-28T16:03:13.622Z,73.83
2022-09-28T16:05:49.412Z,73.45
2022-09-28T16:08:25.370Z,73.95
2022-09-28T16:11:13.369Z,72.93
2022-09-28T16:13:52.746Z,73.34
2022-09-28T16:16:28.095Z,73.34
2022-09-28T16:19:00.935Z,73.16
2022-09-28T16:21:46.086Z,73.73
2022-09-28T16:24:25.062Z,74.04
2022-09-28T16:27:03.167Z,74.30
2022-09-28T16:29:42.800Z,74.22
2022-09-28T16:32:27.203Z,74.22
2022-09-28T16:35:25.342Z,74.47
2022-09-28T16:38:13.696Z,74.47
2022-09-28T16:40:47.126Z,74.65
2022-09-28T16:43:24.618Z,74.75
2022-09-28T16:45:58.109Z,74.39
2022-09-28T16:48:31.105Z,75.48
2022-09-28T16:51:00.842Z,75.72
2022-09-28T16:53:48.450Z,76.08
2022-09-28T16:56:18.442Z,76.36
2022-09-28T16:58:50.171Z,76.88
2022-09-28T17:01:20.921Z,76.88
2022-09-28T17:03:50.904Z,77.34
2022-09-28T17:06:25.093Z,76.87
2022-09-28T17:08:56.537Z,77.00
2022-09-28T17:11:26.322Z,76.65
2022-09-28T17:13:57.695Z,75.95
2022-09-28T17:19:02.512Z,76.76
2022-09-28T17:21:32.611Z,77.46
2022-09-28T17:24:02.546Z,78.31
2022-09-28T17:26:34.448Z,77.69
2022-09-28T17:29:06.104Z,78.46
2022-09-28T17:31:36.295Z,78.10
2022-09-28T17:34:08.171Z,78.10
2022-09-28T17:36:38.470Z,77.90
2022-09-28T17:39:10.076Z,78.35
2022-09-28T17:41:40.668Z,78.35
2022-09-28T17:44:13.372Z,78.12
2022-09-28T17:46:49.765Z,78.12
2022-09-28T17:49:19.548Z,78.39
2022-09-28T17:51:50.240Z,78.99
2022-09-28T17:54:21.189Z,77.51
2022-09-28T17:56:51.069Z,78.59
2022-09-28T17:59:20.816Z,78.13
2022-09-28T18:01:50.696Z,78.53
2022-09-28T18:04:40.149Z,78.88
2022-09-28T18:06:51.833Z,78.55
2022-09-28T18:09:23.362Z,78.78
2022-09-28T18:11:56.129Z,79.46
2022-09-28T18:14:25.702Z,78.27
2022-09-28T18:16:55.413Z,79.70
2022-09-28T18:19:28.556Z,79.06
2022-09-28T18:21:58.141Z,78.11
2022-09-28T18:24:27.871Z,77.56
2022-09-28T18:26:57.629Z,78.10
2022-09-28T18:29:31.024Z,78.57
2022-09-28T18:31:58.593Z,77.72
2022-09-28T18:34:28.087Z,79.49
2022-09-28T18:36:57.858Z,79.64
2022-09-28T18:39:27.353Z,79.13
2022-09-28T18:41:57.215Z,78.59
2022-09-28T18:44:27.352Z,78.91
2022-09-28T18:46:57.144Z,80.48
2022-09-28T18:49:26.970Z,80.48
2022-09-28T18:51:57.352Z,80.41
2022-09-28T18:54:27.086Z,80.55
2022-09-28T18:56:57.721Z,79.60
2022-09-28T18:59:27.813Z,80.05
2022-09-28T19:01:57.625Z,80.77
2022-09-28T19:04:27.055Z,80.52
2022-09-28T19:06:56.850Z,80.50
2022-09-28T19:09:26.670Z,79.44
2022-09-28T19:11:56.402Z,80.30
2022-09-28T19:14:25.828Z,79.51
2022-09-28T19:16:55.839Z,79.95
2022-09-28T19:19:25.861Z,79.78
2022-09-28T19:21:55.971Z,79.89
2022-09-28T19:24:25.748Z,79.83
2022-09-28T19:26:55.503Z,79.83
2022-09-28T19:29:25.687Z,80.70
2022-09-28T19:31:56.622Z,79.91
2022-09-28T19:34:28.086Z,80.26
2022-09-28T19:36:58.368Z,80.40
2022-09-28T19:39:28.089Z,80.22
2022-09-28T19:41:59.666Z,81.37
2022-09-28T19:44:31.105Z,80.31
2022-09-28T19:47:07.480Z,80.31
2022-09-28T19:49:39.042Z,80.49
2022-09-28T19:52:15.316Z,80.84
2022-09-28T19:54:49.192Z,80.77
2022-09-28T19:57:19.541Z,80.21
2022-09-28T19:59:52.626Z,80.21
2022-09-28T20:02:21.859Z,80.39
2022-09-28T20:04:51.607Z,80.39
2022-09-28T20:07:22.107Z,80.03
2022-09-28T20:09:51.841Z,80.37
2022-09-28T20:12:22.195Z,79.88
2022-09-28T20:14:51.918Z,79.53
2022-09-28T20:17:21.801Z,80.10
2022-09-28T20:19:51.802Z,80.10
2022-09-28T20:22:21.497Z,80.34
2022-09-28T20:24:51.200Z,80.12
2022-09-28T20:27:25.498Z,80.67
2022-09-28T20:29:52.666Z,80.42
2022-09-28T20:32:22.408Z,79.53
2022-09-28T20:34:52.134Z,79.76
2022-09-28T20:37:23.134Z,80.04
2022-09-28T20:39:53.341Z,81.19
2022-09-28T20:42:23.186Z,81.01
2022-09-28T20:44:52.953Z,81.05
2022-09-28T20:47:22.688Z,80.97
2022-09-28T20:49:52.434Z,81.14
2022-09-28T20:52:22.764Z,80.87
2022-09-28T20:54:52.497Z,81.19
2022-09-28T20:57:22.220Z,80.61
2022-09-28T20:59:54.702Z,81.04
2022-09-28T21:02:23.569Z,80.61
2022-09-28T21:04:54.092Z,80.67
2022-09-28T21:07:24.381Z,80.59
2022-09-28T21:09:54.111Z,80.29
2022-09-28T21:12:25.198Z,80.10
2022-09-28T21:14:54.898Z,80.32
2022-09-28T21:17:24.654Z,81.79
2022-09-28T21:19:54.199Z,81.79
2022-09-28T21:22:24.095Z,81.11
2022-09-28T21:24:53.846Z,81.50
2022-09-28T21:27:23.599Z,83.06
2022-09-28T21:29:53.658Z,83.06
2022-09-28T21:32:23.246Z,83.06
2022-09-28T21:34:53.039Z,82.67
2022-09-28T21:37:22.788Z,82.32
2022-09-28T21:39:52.887Z,82.57
2022-09-28T21:42:22.628Z,81.39
2022-09-28T21:44:55.302Z,81.30
2022-09-28T21:47:23.864Z,81.08
2022-09-28T21:49:53.707Z,82.40
2022-09-28T21:52:23.129Z,83.57
2022-09-28T21:54:52.867Z,82.85
2022-09-28T21:57:22.594Z,82.29
2022-09-28T21:59:52.218Z,82.29
2022-09-28T22:02:22.546Z,81.04
2022-09-28T22:04:52.577Z,81.52
2022-09-28T22:07:22.297Z,81.88
2022-09-28T22:09:53.591Z,81.87
2022-09-28T22:12:23.135Z,81.32
2022-09-28T22:14:52.866Z,81.13
2022-09-28T22:17:22.683Z,82.06
2022-09-28T22:19:52.414Z,82.15
2022-09-28T22:22:24.369Z,80.74
2022-09-28T22:24:54.824Z,80.97
2022-09-28T22:27:24.726Z,80.89
2022-09-28T22:29:54.277Z,80.47
2022-09-28T22:32:24.043Z,81.03
2022-09-28T22:34:53.856Z,80.86
2022-09-28T22:37:24.454Z,81.05
2022-09-28T22:39:56.111Z,79.95
2022-09-28T22:42:25.872Z,80.30
2022-09-28T22:44:55.616Z,80.30
2022-09-28T22:47:25.349Z,80.64
2022-09-28T22:49:55.111Z,80.64
2022-09-28T22:54:56.260Z,81.87
2022-09-28T22:57:25.995Z,81.19
2022-09-28T22:59:55.741Z,82.94
2022-09-28T23:02:25.591Z,82.24
2022-09-28T23:04:55.642Z,81.47
2022-09-28T23:07:26.135Z,81.71
2022-09-28T23:09:57.546Z,82.43
2022-09-28T23:12:27.706Z,82.93
2022-09-28T23:14:57.505Z,82.81
2022-09-28T23:17:27.525Z,82.21
2022-09-28T23:19:57.540Z,81.10
2022-09-28T23:22:26.999Z,81.10
2022-09-28T23:24:56.794Z,81.29
2022-09-28T23:27:26.533Z,81.99
2022-09-28T23:29:56.742Z,81.99
2022-09-28T23:32:29.820Z,81.75
2022-09-28T23:34:58.008Z,81.83
2022-09-28T23:37:27.899Z,82.00
2022-09-28T23:39:57.603Z,81.83
2022-09-28T23:42:27.055Z,82.60
2022-09-28T23:44:56.789Z,81.96
2022-09-28T23:47:26.591Z,82.57
2022-09-28T23:49:56.031Z,82.40
2022-09-28T23:52:25.658Z,83.17
2022-09-28T23:54:55.392Z,83.17
2022-09-28T23:57:25.452Z,82.67
2022-09-28T23:59:55.507Z,81.92
